Oba, Canada
Current Conditions -  °F | °C
As of 3:22 PM on Wednesday 26 Nov 2014 (Local Time) from CYYU Reporting Station
Light Snow Light Snow  
Wind Chill: -3°   Ceiling: 1800
Heat Index:   Visibility: 2.5mi
Dew Point:   Wind: 7mph
Humidity: 79%   Direction: 40°NE
Pressure: 30.26"   Gusts: NA
Location:  49.07°N, 84.1°W
Report Text: CYYU 262022Z 04006KT 360V070 2 1/2SM -SN OVC018 M13/M16 A3026 RMK SC8 BLN ESTD SLP267
Loading
Personal Weather Stations






























Interactive Weather Map New forecast layout! Learn more

10-Day Weather Forecast

Advertisements
Track Severe Weather on mobile